createdAt,value
2022-08-20T00:01:05.708Z,23.83
2022-08-20T00:03:36.150Z,23.79
2022-08-20T00:06:09.079Z,23.55
2022-08-20T00:08:36.265Z,23.70
2022-08-20T00:11:06.697Z,23.64
2022-08-20T00:13:37.136Z,23.79
2022-08-20T00:16:05.220Z,23.75
2022-08-20T00:18:32.001Z,23.76
2022-08-20T00:20:58.827Z,23.77
2022-08-20T00:23:25.556Z,23.70
2022-08-20T00:25:52.620Z,23.63
2022-08-20T00:28:19.505Z,23.16
2022-08-20T00:30:46.517Z,23.11
2022-08-20T00:33:16.871Z,23.52
2022-08-20T00:35:46.984Z,23.52
2022-08-20T00:38:14.259Z,23.37
2022-08-20T00:40:45.502Z,23.66
2022-08-20T00:43:46.925Z,23.64
2022-08-20T00:46:28.835Z,23.81
2022-08-20T00:48:59.099Z,23.82
2022-08-20T00:51:39.803Z,23.77
2022-08-20T00:54:13.603Z,23.59
2022-08-20T00:56:44.060Z,23.81
2022-08-20T00:59:17.861Z,23.70
2022-08-20T01:01:55.325Z,23.37
2022-08-20T01:04:26.921Z,23.56
2022-08-20T01:06:54.462Z,23.49
2022-08-20T01:09:49.407Z,23.41
2022-08-20T01:12:09.909Z,23.15
2022-08-20T01:14:39.820Z,23.33
2022-08-20T01:17:08.446Z,23.28
2022-08-20T01:19:44.634Z,23.36
2022-08-20T01:22:34.008Z,23.53
2022-08-20T01:25:10.038Z,23.56
2022-08-20T01:27:42.561Z,23.56
2022-08-20T01:30:11.135Z,23.61
2022-08-20T01:32:37.953Z,23.77
2022-08-20T01:35:05.680Z,23.87
2022-08-20T01:37:32.384Z,23.74
2022-08-20T01:39:59.490Z,23.48
2022-08-20T01:42:58.625Z,23.51
2022-08-20T01:45:29.220Z,23.46
2022-08-20T01:47:57.917Z,23.47
2022-08-20T01:50:28.894Z,23.52
2022-08-20T01:53:00.585Z,23.51
2022-08-20T01:55:27.871Z,23.02
2022-08-20T01:57:54.768Z,23.23
2022-08-20T02:00:22.604Z,23.32
2022-08-20T02:02:49.759Z,23.31
2022-08-20T02:05:17.787Z,23.16
2022-08-20T02:07:44.787Z,23.13
2022-08-20T02:10:13.887Z,23.10
2022-08-20T02:12:40.739Z,23.06
2022-08-20T02:15:10.603Z,23.05
2022-08-20T02:20:10.482Z,23.10
2022-08-20T02:22:51.367Z,23.13
2022-08-20T02:25:20.865Z,23.14
2022-08-20T02:27:51.956Z,22.98
2022-08-20T02:30:33.275Z,23.00
2022-08-20T02:33:02.675Z,22.95
2022-08-20T02:35:30.721Z,22.98
2022-08-20T02:37:58.163Z,23.06
2022-08-20T02:40:30.864Z,22.35
2022-08-20T02:43:01.422Z,23.02
2022-08-20T02:45:30.268Z,22.69
2022-08-20T02:47:58.940Z,23.00
2022-08-20T02:50:26.989Z,23.10
2022-08-20T02:52:54.305Z,23.13
2022-08-20T02:55:27.490Z,23.18
2022-08-20T02:57:58.014Z,23.23
2022-08-20T03:00:26.545Z,23.25
2022-08-20T03:02:53.119Z,22.93
2022-08-20T03:05:19.807Z,23.04
2022-08-20T03:07:49.217Z,22.98
2022-08-20T03:10:16.744Z,22.98
2022-08-20T03:12:44.097Z,23.15
2022-08-20T03:15:17.113Z,23.19
2022-08-20T03:17:45.168Z,23.19
2022-08-20T03:20:13.356Z,23.25
2022-08-20T03:22:40.544Z,23.30
2022-08-20T03:25:07.678Z,23.10
2022-08-20T03:27:36.493Z,23.04
2022-08-20T03:30:06.712Z,23.36
2022-08-20T03:32:33.326Z,23.13
2022-08-20T03:35:00.109Z,23.31
2022-08-20T03:37:30.991Z,23.33
2022-08-20T03:39:57.960Z,23.31
2022-08-20T03:42:24.676Z,23.39
2022-08-20T03:44:58.893Z,23.20
2022-08-20T03:47:26.778Z,23.23
2022-08-20T03:49:59.160Z,23.25
2022-08-20T03:52:27.250Z,23.24
2022-08-20T03:54:53.863Z,22.92
2022-08-20T03:57:20.446Z,22.89
2022-08-20T03:59:47.057Z,22.94
2022-08-20T04:02:21.642Z,22.98
2022-08-20T04:04:48.286Z,22.85
2022-08-20T04:07:25.595Z,22.84
2022-08-20T04:09:53.636Z,22.79
2022-08-20T04:12:20.543Z,22.81
2022-08-20T04:14:47.712Z,22.75
2022-08-20T04:17:14.330Z,22.81
2022-08-20T04:19:41.617Z,22.75
2022-08-20T04:22:08.157Z,22.60
2022-08-20T04:24:37.197Z,22.66
2022-08-20T04:27:04.913Z,22.57
2022-08-20T04:29:35.303Z,22.73
2022-08-20T04:32:05.679Z,22.70
2022-08-20T04:34:33.273Z,22.66
2022-08-20T04:36:59.858Z,22.63
2022-08-20T04:39:26.863Z,22.64
2022-08-20T04:41:53.409Z,22.68
2022-08-20T04:44:21.809Z,22.57
2022-08-20T04:46:48.914Z,22.22
2022-08-20T04:49:15.700Z,22.63
2022-08-20T04:51:42.363Z,22.48
2022-08-20T04:54:09.322Z,22.64
2022-08-20T04:56:39.722Z,22.63
2022-08-20T04:59:07.449Z,22.63
2022-08-20T05:01:35.222Z,22.66
2022-08-20T05:04:01.903Z,22.77
2022-08-20T05:06:31.621Z,22.91
2022-08-20T05:09:00.076Z,22.92
2022-08-20T05:11:33.914Z,23.00
2022-08-20T05:14:05.187Z,22.89
2022-08-20T05:16:37.836Z,22.96
2022-08-20T05:19:05.928Z,22.96
2022-08-20T05:21:32.545Z,22.80
2022-08-20T05:23:59.107Z,22.97
2022-08-20T05:26:26.399Z,22.96
2022-08-20T05:28:57.822Z,22.68
2022-08-20T05:31:32.066Z,23.08
2022-08-20T05:33:59.865Z,23.16
2022-08-20T05:36:27.026Z,23.12
2022-08-20T05:38:53.898Z,23.15
2022-08-20T05:41:29.110Z,23.16
2022-08-20T05:44:01.093Z,23.10
2022-08-20T05:46:29.320Z,23.20
2022-08-20T05:48:56.203Z,23.22
2022-08-20T05:51:26.918Z,23.18
2022-08-20T05:53:53.483Z,23.25
2022-08-20T05:56:20.066Z,23.31
2022-08-20T05:58:53.926Z,23.33
2022-08-20T06:01:20.631Z,22.97
2022-08-20T06:04:06.069Z,23.72
2022-08-20T06:06:45.096Z,23.85
2022-08-20T06:09:14.987Z,23.86
2022-08-20T06:11:41.576Z,23.97
2022-08-20T06:14:08.208Z,23.86
2022-08-20T06:16:34.935Z,24.05
2022-08-20T06:19:04.665Z,24.14
2022-08-20T06:21:31.445Z,23.91
2022-08-20T06:24:00.837Z,24.21
2022-08-20T06:26:30.653Z,24.29
2022-08-20T06:28:59.719Z,24.38
2022-08-20T06:31:27.765Z,24.49
2022-08-20T06:33:54.689Z,24.51
2022-08-20T06:36:21.497Z,24.44
2022-08-20T06:38:48.286Z,24.77
2022-08-20T06:41:15.057Z,24.72
2022-08-20T06:43:41.695Z,24.77
2022-08-20T06:46:08.766Z,24.81
2022-08-20T06:48:37.180Z,24.50
2022-08-20T06:51:06.474Z,24.95
2022-08-20T06:53:33.092Z,24.72
2022-08-20T06:55:59.892Z,25.03
2022-08-20T06:58:36.812Z,25.07
2022-08-20T07:01:11.282Z,24.91
2022-08-20T07:03:42.062Z,25.08
2022-08-20T07:06:20.956Z,24.92
2022-08-20T07:08:47.524Z,24.61
2022-08-20T07:11:14.210Z,25.41
2022-08-20T07:13:41.529Z,25.52
2022-08-20T07:16:08.355Z,25.60
2022-08-20T07:18:37.798Z,25.47
2022-08-20T07:21:04.575Z,25.55
2022-08-20T07:23:31.765Z,25.34
2022-08-20T07:25:58.628Z,25.39
2022-08-20T07:28:31.964Z,25.59
2022-08-20T07:31:17.116Z,25.66
2022-08-20T07:33:47.171Z,25.66
2022-08-20T07:36:17.731Z,25.67
2022-08-20T07:38:47.096Z,25.55
2022-08-20T07:41:15.110Z,25.74
2022-08-20T07:43:45.233Z,25.86
2022-08-20T07:46:13.887Z,25.91
2022-08-20T07:48:46.114Z,25.93
2022-08-20T07:51:17.839Z,25.87
2022-08-20T07:53:46.871Z,26.08
2022-08-20T07:56:16.613Z,25.85
2022-08-20T07:58:56.272Z,26.08
2022-08-20T08:01:26.628Z,26.09
2022-08-20T08:03:53.484Z,26.17
2022-08-20T08:06:30.384Z,26.19
2022-08-20T08:09:19.112Z,26.25
2022-08-20T08:11:50.182Z,26.21
2022-08-20T08:14:24.893Z,26.43
2022-08-20T08:16:54.177Z,26.42
2022-08-20T08:19:21.435Z,26.31
2022-08-20T08:21:51.683Z,26.36
2022-08-20T08:24:21.075Z,26.43
2022-08-20T08:26:51.105Z,26.60
2022-08-20T08:29:17.832Z,26.32
2022-08-20T08:31:44.943Z,26.54
2022-08-20T08:34:12.107Z,26.70
2022-08-20T08:36:40.652Z,26.56
2022-08-20T08:39:07.459Z,26.53
2022-08-20T08:41:37.784Z,26.76
2022-08-20T08:44:13.025Z,26.75
2022-08-20T08:46:43.522Z,26.87
2022-08-20T08:49:14.750Z,26.79
2022-08-20T08:51:43.654Z,26.87
2022-08-20T08:54:19.435Z,26.79
2022-08-20T08:56:50.169Z,26.96
2022-08-20T08:59:18.799Z,26.64
2022-08-20T09:01:57.624Z,27.02
2022-08-20T09:04:33.479Z,27.08
2022-08-20T09:07:03.190Z,27.12
2022-08-20T09:09:32.989Z,26.94
2022-08-20T09:12:12.615Z,27.26
2022-08-20T09:14:39.634Z,27.32
2022-08-20T09:17:06.767Z,26.92
2022-08-20T09:19:33.561Z,27.23
2022-08-20T09:22:07.617Z,27.51
2022-08-20T09:24:34.266Z,27.64
2022-08-20T09:27:00.780Z,27.52
2022-08-20T09:29:27.400Z,27.58
2022-08-20T09:32:05.152Z,27.88
2022-08-20T09:34:47.052Z,27.77
2022-08-20T09:37:15.299Z,27.58
2022-08-20T09:39:43.154Z,27.97
2022-08-20T09:42:14.698Z,28.16
2022-08-20T09:44:41.750Z,28.12
2022-08-20T09:47:09.616Z,28.19
2022-08-20T09:49:37.414Z,28.17
2022-08-20T09:52:07.561Z,28.39
2022-08-20T09:54:35.918Z,28.42
2022-08-20T09:57:06.037Z,28.55
2022-08-20T09:59:33.867Z,28.54
2022-08-20T10:02:01.816Z,28.69
2022-08-20T10:04:28.982Z,28.81
2022-08-20T10:06:56.516Z,28.79
2022-08-20T10:09:23.705Z,29.01
2022-08-20T10:11:50.351Z,28.94
2022-08-20T10:14:16.968Z,28.94
2022-08-20T10:16:43.826Z,28.78
2022-08-20T10:19:10.547Z,29.32
2022-08-20T10:21:39.031Z,29.40
2022-08-20T10:24:06.137Z,29.44
2022-08-20T10:26:33.069Z,29.37
2022-08-20T10:29:00.080Z,29.44
2022-08-20T10:31:26.730Z,29.61
2022-08-20T10:33:53.395Z,29.65
2022-08-20T10:36:20.277Z,29.70
2022-08-20T10:38:48.616Z,29.89
2022-08-20T10:41:15.364Z,29.49
2022-08-20T10:43:42.016Z,29.75
2022-08-20T10:46:09.153Z,29.89
2022-08-20T10:48:35.974Z,30.08
2022-08-20T10:51:02.692Z,30.27
2022-08-20T10:53:29.910Z,30.18
2022-08-20T10:55:57.876Z,30.06
2022-08-20T10:58:26.112Z,30.16
2022-08-20T11:01:04.038Z,29.89
2022-08-20T11:03:32.142Z,30.11
2022-08-20T11:05:58.909Z,30.30
2022-08-20T11:08:34.269Z,30.51
2022-08-20T11:11:04.911Z,30.35
2022-08-20T11:13:32.803Z,30.23
2022-08-20T11:16:00.527Z,30.24
2022-08-20T11:18:27.485Z,30.27
2022-08-20T11:20:54.268Z,30.37
2022-08-20T11:23:21.037Z,30.49
2022-08-20T11:25:48.763Z,30.28
2022-08-20T11:28:15.900Z,30.66
2022-08-20T11:30:42.702Z,30.77
2022-08-20T11:33:09.383Z,30.86
2022-08-20T11:35:48.875Z,30.60
2022-08-20T11:38:16.446Z,30.78
2022-08-20T11:40:43.043Z,30.16
2022-08-20T11:43:17.807Z,30.57
2022-08-20T11:45:52.642Z,30.84
2022-08-20T11:48:19.408Z,30.88
2022-08-20T11:50:48.956Z,31.28
2022-08-20T11:53:15.738Z,31.27
2022-08-20T11:55:43.264Z,31.69
2022-08-20T11:58:10.623Z,31.37
2022-08-20T12:00:37.324Z,31.46
2022-08-20T12:03:08.747Z,31.43
2022-08-20T12:05:37.419Z,31.34
2022-08-20T12:08:04.761Z,31.45
2022-08-20T12:10:32.428Z,31.81
2022-08-20T12:12:59.250Z,31.79
2022-08-20T12:15:27.571Z,32.09
2022-08-20T12:17:55.334Z,32.27
2022-08-20T12:20:23.669Z,32.39
2022-08-20T12:22:51.251Z,32.41
2022-08-20T12:25:17.985Z,32.74
2022-08-20T12:27:46.335Z,32.96
2022-08-20T12:30:18.292Z,32.96
2022-08-20T12:32:45.085Z,32.74
2022-08-20T12:35:13.218Z,32.80
2022-08-20T12:37:40.689Z,32.70
2022-08-20T12:40:11.279Z,32.73
2022-08-20T12:42:38.787Z,32.81
2022-08-20T12:45:06.630Z,32.73
2022-08-20T12:47:39.297Z,33.07
2022-08-20T12:50:09.138Z,33.20
2022-08-20T12:52:36.027Z,33.05
2022-08-20T12:55:04.379Z,33.31
2022-08-20T12:57:45.527Z,33.46
2022-08-20T13:00:16.109Z,33.59
2022-08-20T13:02:43.588Z,33.59
2022-08-20T13:05:11.460Z,33.54
2022-08-20T13:07:38.996Z,33.78
2022-08-20T13:10:08.724Z,33.61
2022-08-20T13:12:35.619Z,33.59
2022-08-20T13:15:02.468Z,33.63
2022-08-20T13:17:38.058Z,32.91
2022-08-20T13:20:15.191Z,32.53
2022-08-20T13:22:42.403Z,32.04
2022-08-20T13:25:10.631Z,32.13
2022-08-20T13:27:38.516Z,32.13
2022-08-20T13:30:07.637Z,31.88
2022-08-20T13:32:34.298Z,31.51
2022-08-20T13:35:00.928Z,31.19
2022-08-20T13:37:29.710Z,30.80
2022-08-20T13:39:58.261Z,31.21
2022-08-20T13:42:26.277Z,31.35
2022-08-20T13:44:54.119Z,30.77
2022-08-20T13:47:34.146Z,30.99
2022-08-20T13:50:03.860Z,30.83
2022-08-20T13:52:31.248Z,30.60
2022-08-20T13:54:59.251Z,30.54
2022-08-20T13:57:26.395Z,29.91
2022-08-20T13:59:57.302Z,30.24
2022-08-20T14:02:25.732Z,30.11
2022-08-20T14:04:52.582Z,29.80
2022-08-20T14:07:32.173Z,30.00
2022-08-20T14:10:10.030Z,29.96
2022-08-20T14:12:36.769Z,29.90
2022-08-20T14:15:04.519Z,29.87
2022-08-20T14:17:43.156Z,30.03
2022-08-20T14:20:14.984Z,30.20
2022-08-20T14:22:42.559Z,30.28
2022-08-20T14:25:11.296Z,30.35
2022-08-20T14:27:38.435Z,30.40
2022-08-20T14:30:07.821Z,29.48
2022-08-20T14:32:34.579Z,29.58
2022-08-20T14:35:02.355Z,29.61
2022-08-20T14:37:34.760Z,29.29
2022-08-20T14:40:04.178Z,28.96
2022-08-20T14:42:30.996Z,28.91
2022-08-20T14:44:59.105Z,29.07
2022-08-20T14:47:34.934Z,29.04
2022-08-20T14:50:06.569Z,28.82
2022-08-20T14:52:36.876Z,29.06
2022-08-20T14:55:06.115Z,29.07
2022-08-20T14:57:34.044Z,29.15
2022-08-20T15:00:01.355Z,28.71
2022-08-20T15:02:28.085Z,29.23
2022-08-20T15:04:55.756Z,28.87
2022-08-20T15:07:26.932Z,29.10
2022-08-20T15:09:55.383Z,29.16
2022-08-20T15:12:22.824Z,29.10
2022-08-20T15:14:49.525Z,29.06
2022-08-20T15:17:27.846Z,28.68
2022-08-20T15:19:55.743Z,28.94
2022-08-20T15:22:23.291Z,29.03
2022-08-20T15:24:50.015Z,29.13
2022-08-20T15:27:24.091Z,28.67
2022-08-20T15:29:52.267Z,27.90
2022-08-20T15:32:20.575Z,28.41
2022-08-20T15:34:47.861Z,28.26
2022-08-20T15:37:21.113Z,28.81
2022-08-20T15:39:49.048Z,28.91
2022-08-20T15:42:16.133Z,28.39
2022-08-20T15:44:43.558Z,29.26
2022-08-20T15:47:27.809Z,28.59
2022-08-20T15:50:02.688Z,28.87
2022-08-20T15:52:41.923Z,28.01
2022-08-20T15:55:12.313Z,29.33
2022-08-20T15:58:16.902Z,29.71
2022-08-20T16:01:24.679Z,29.59
2022-08-20T16:04:01.641Z,30.17
2022-08-20T16:06:32.150Z,29.73
2022-08-20T16:09:16.745Z,30.58
2022-08-20T16:11:59.037Z,29.80
2022-08-20T16:14:30.350Z,30.42
2022-08-20T16:17:07.952Z,30.07
2022-08-20T16:19:59.378Z,30.91
2022-08-20T16:22:30.185Z,30.98
2022-08-20T16:24:56.973Z,30.87
2022-08-20T16:27:49.637Z,30.96
2022-08-20T16:30:21.415Z,31.08
2022-08-20T16:32:58.926Z,31.01
2022-08-20T16:35:33.779Z,31.06
2022-08-20T16:38:31.239Z,31.18
2022-08-20T16:41:22.193Z,31.07
2022-08-20T16:44:05.333Z,31.27
2022-08-20T16:46:38.190Z,31.23
2022-08-20T16:49:13.515Z,31.22
2022-08-20T16:51:42.748Z,31.35
2022-08-20T16:54:12.979Z,30.63
2022-08-20T16:56:49.023Z,31.08
2022-08-20T16:59:26.852Z,31.23
2022-08-20T17:02:10.018Z,31.11
2022-08-20T17:04:59.486Z,31.06
2022-08-20T17:07:40.322Z,31.38
2022-08-20T17:10:13.116Z,30.47
2022-08-20T17:12:39.770Z,31.02
2022-08-20T17:15:06.848Z,31.29
2022-08-20T17:17:37.150Z,31.27
2022-08-20T17:20:20.388Z,31.13
2022-08-20T17:22:54.083Z,31.04
2022-08-20T17:25:31.232Z,31.16
2022-08-20T17:28:00.516Z,30.96
2022-08-20T17:30:37.354Z,30.97
2022-08-20T17:33:07.237Z,31.08
2022-08-20T17:35:43.261Z,30.60
2022-08-20T17:38:27.491Z,31.01
2022-08-20T17:41:00.085Z,30.74
2022-08-20T17:43:33.369Z,30.77
2022-08-20T17:46:06.612Z,30.76
2022-08-20T17:48:50.716Z,30.55
2022-08-20T17:51:24.364Z,30.75
2022-08-20T17:53:56.991Z,30.71
2022-08-20T17:56:30.649Z,30.52
2022-08-20T17:59:05.846Z,29.85
2022-08-20T18:01:34.292Z,30.59
2022-08-20T18:04:01.027Z,29.90
2022-08-20T18:06:46.536Z,29.44
2022-08-20T18:09:26.345Z,30.47
2022-08-20T18:12:03.175Z,30.16
2022-08-20T18:14:57.476Z,30.08
2022-08-20T18:17:25.186Z,30.27
2022-08-20T18:20:11.509Z,29.91
2022-08-20T18:23:10.411Z,30.14
2022-08-20T18:25:42.327Z,29.87
2022-08-20T18:28:53.241Z,29.99
2022-08-20T18:31:33.678Z,29.96
2022-08-20T18:34:17.424Z,29.94
2022-08-20T18:36:55.311Z,29.73
2022-08-20T18:39:28.429Z,29.15
2022-08-20T18:42:06.757Z,29.19
2022-08-20T18:44:39.461Z,29.25
2022-08-20T18:47:18.540Z,29.66
2022-08-20T18:49:45.483Z,29.56
2022-08-20T18:52:23.257Z,29.47
2022-08-20T18:54:52.906Z,29.49
2022-08-20T18:57:26.341Z,29.39
2022-08-20T19:03:07.015Z,28.80
2022-08-20T19:05:39.815Z,29.37
2022-08-20T19:08:07.898Z,29.32
2022-08-20T19:10:49.222Z,29.25
2022-08-20T19:13:38.777Z,29.17
2022-08-20T19:16:21.191Z,29.05
2022-08-20T19:18:52.941Z,28.34
2022-08-20T19:21:26.396Z,29.01
2022-08-20T19:23:56.927Z,28.47
2022-08-20T19:26:28.734Z,28.92
2022-08-20T19:28:59.144Z,28.61
2022-08-20T19:31:29.612Z,28.92
2022-08-20T19:34:21.795Z,28.92
2022-08-20T19:37:27.675Z,28.47
2022-08-20T19:39:51.757Z,28.66
2022-08-20T19:42:33.400Z,28.57
2022-08-20T19:45:04.180Z,28.57
2022-08-20T19:47:46.103Z,28.29
2022-08-20T19:50:27.789Z,28.19
2022-08-20T19:53:07.229Z,28.02
2022-08-20T19:55:37.714Z,28.19
2022-08-20T19:58:26.358Z,28.16
2022-08-20T20:00:55.282Z,28.16
2022-08-20T20:03:29.476Z,28.09
2022-08-20T20:06:16.855Z,27.69
2022-08-20T20:09:14.958Z,28.02
2022-08-20T20:11:48.674Z,28.06
2022-08-20T20:14:17.677Z,28.00
2022-08-20T20:16:48.861Z,27.92
2022-08-20T20:19:26.447Z,27.85
2022-08-20T20:22:19.413Z,27.73
2022-08-20T20:24:56.769Z,27.78
2022-08-20T20:27:26.096Z,27.67
2022-08-20T20:30:00.018Z,27.57
2022-08-20T20:32:27.889Z,27.74
2022-08-20T20:34:58.274Z,27.74
2022-08-20T20:37:50.937Z,27.73
2022-08-20T20:40:23.925Z,27.69
2022-08-20T20:43:08.415Z,27.64
2022-08-20T20:45:44.501Z,27.19
2022-08-20T20:48:23.510Z,27.53
2022-08-20T20:50:51.426Z,27.54
2022-08-20T20:53:53.182Z,27.49
2022-08-20T20:56:43.219Z,27.38
2022-08-20T20:59:10.933Z,27.46
2022-08-20T21:01:48.954Z,27.36
2022-08-20T21:04:21.343Z,27.14
2022-08-20T21:06:48.342Z,27.25
2022-08-20T21:09:15.111Z,27.25
2022-08-20T21:11:41.717Z,27.25
2022-08-20T21:14:08.576Z,27.18
2022-08-20T21:16:35.216Z,26.91
2022-08-20T21:19:06.014Z,26.99
2022-08-20T21:21:32.980Z,27.17
2022-08-20T21:23:59.887Z,27.14
2022-08-20T21:26:28.072Z,26.83
2022-08-20T21:28:55.017Z,27.08
2022-08-20T21:31:23.331Z,26.37
2022-08-20T21:33:49.916Z,26.86
2022-08-20T21:36:16.494Z,26.99
2022-08-20T21:38:43.135Z,26.87
2022-08-20T21:41:09.921Z,26.95
2022-08-20T21:43:37.592Z,26.79
2022-08-20T21:46:04.988Z,26.84
2022-08-20T21:48:32.351Z,26.82
2022-08-20T21:50:59.035Z,26.74
2022-08-20T21:53:25.625Z,26.83
2022-08-20T21:55:52.360Z,26.62
2022-08-20T21:58:20.366Z,25.96
2022-08-20T22:00:57.396Z,26.77
2022-08-20T22:03:27.844Z,26.55
2022-08-20T22:05:55.101Z,26.72
2022-08-20T22:08:26.048Z,26.19
2022-08-20T22:10:57.166Z,26.52
2022-08-20T22:13:25.012Z,26.64
2022-08-20T22:15:51.700Z,26.70
2022-08-20T22:18:18.375Z,26.75
2022-08-20T22:20:45.391Z,26.75
2022-08-20T22:23:12.220Z,26.75
2022-08-20T22:25:38.902Z,26.70
2022-08-20T22:28:05.688Z,26.63
2022-08-20T22:30:32.358Z,26.72
2022-08-20T22:33:03.399Z,26.76
2022-08-20T22:35:30.834Z,26.76
2022-08-20T22:37:58.118Z,26.82
2022-08-20T22:40:25.155Z,26.50
2022-08-20T22:42:52.221Z,26.74
2022-08-20T22:45:19.138Z,26.41
2022-08-20T22:47:45.971Z,26.40
2022-08-20T22:50:14.247Z,26.69
2022-08-20T22:52:43.471Z,26.51
2022-08-20T22:55:10.559Z,26.47
2022-08-20T22:57:38.666Z,25.85
2022-08-20T23:00:11.457Z,26.43
2022-08-20T23:02:39.844Z,26.55
2022-08-20T23:05:06.931Z,26.48
2022-08-20T23:07:34.704Z,26.31
2022-08-20T23:10:01.559Z,26.45
2022-08-20T23:12:28.249Z,26.27
2022-08-20T23:14:54.992Z,26.35
2022-08-20T23:17:23.638Z,26.31
2022-08-20T23:19:51.408Z,25.92
2022-08-20T23:22:19.404Z,25.87
2022-08-20T23:24:46.623Z,26.23
2022-08-20T23:27:19.820Z,25.95
2022-08-20T23:29:47.020Z,26.16
2022-08-20T23:32:14.050Z,26.17
2022-08-20T23:34:40.656Z,26.03
2022-08-20T23:37:08.270Z,25.98
2022-08-20T23:39:35.379Z,26.14
2022-08-20T23:42:02.549Z,26.04
2022-08-20T23:44:29.296Z,25.97
2022-08-20T23:46:58.554Z,25.93
2022-08-20T23:49:26.050Z,25.99
2022-08-20T23:51:52.860Z,25.87
2022-08-20T23:54:19.721Z,25.90
2022-08-20T23:56:46.646Z,25.65
2022-08-20T23:59:13.324Z,25.88
